createdAt,value
2022-12-07T00:03:24.279Z,37.37
2022-12-07T00:08:30.116Z,38.29
2022-12-07T00:13:36.984Z,40.49
2022-12-07T00:18:42.290Z,40.12
2022-12-07T00:23:52.075Z,41.75
2022-12-07T00:28:57.166Z,41.40
2022-12-07T00:34:04.839Z,41.23
2022-12-07T00:39:08.139Z,40.51
2022-12-07T00:44:11.553Z,43.76
2022-12-07T00:49:16.208Z,43.05
2022-12-07T00:54:19.673Z,44.30
2022-12-07T00:59:23.120Z,44.66
2022-12-07T01:04:30.648Z,47.34
2022-12-07T01:09:33.991Z,46.83
2022-12-07T01:14:39.638Z,45.50
2022-12-07T01:19:44.428Z,47.87
2022-12-07T01:24:48.755Z,49.59
2022-12-07T01:29:53.184Z,49.61
2022-12-07T01:35:00.776Z,46.80
2022-12-07T01:40:09.175Z,49.37
2022-12-07T01:45:30.390Z,45.16
2022-12-07T01:50:36.113Z,42.54
2022-12-07T01:55:42.832Z,41.03
2022-12-07T02:00:46.188Z,40.18
2022-12-07T02:05:51.989Z,40.42
2022-12-07T02:10:55.347Z,38.42
2022-12-07T02:16:11.833Z,37.28
2022-12-07T02:21:26.221Z,35.50
2022-12-07T02:26:44.414Z,30.30
2022-12-07T02:31:55.476Z,23.60
2022-12-07T02:37:03.719Z,21.70
2022-12-07T02:42:13.528Z,20.32
2022-12-07T02:47:21.611Z,19.03
2022-12-07T02:52:25.019Z,19.13
2022-12-07T02:57:46.665Z,18.50
2022-12-07T03:02:56.032Z,18.29
2022-12-07T03:08:05.767Z,16.44
2022-12-07T03:13:14.491Z,20.04
2022-12-07T03:18:25.197Z,21.08
2022-12-07T03:23:31.124Z,22.09
2022-12-07T03:28:39.727Z,21.46
2022-12-07T03:33:51.985Z,20.89
2022-12-07T03:38:59.721Z,22.30
2022-12-07T03:44:06.687Z,28.49
2022-12-07T03:49:22.343Z,22.27
2022-12-07T03:54:33.045Z,26.13
2022-12-07T03:59:36.532Z,18.00
2022-12-07T04:04:41.522Z,16.89
2022-12-07T04:09:44.851Z,12.10
2022-12-07T04:14:48.468Z,11.37
2022-12-07T04:19:55.733Z,11.67
2022-12-07T04:24:59.043Z,13.85
2022-12-07T04:30:08.007Z,11.49
2022-12-07T04:35:12.801Z,11.21
2022-12-07T04:40:16.120Z,16.44
2022-12-07T04:45:19.636Z,16.98
2022-12-07T04:50:24.456Z,17.37
2022-12-07T04:55:27.770Z,18.20
2022-12-07T05:00:31.279Z,18.63
2022-12-07T05:05:41.713Z,17.94
2022-12-07T05:10:50.512Z,20.42
2022-12-07T05:15:56.924Z,18.56
2022-12-07T05:21:02.816Z,17.03
2022-12-07T05:26:06.258Z,17.15
2022-12-07T05:31:12.099Z,15.32
2022-12-07T05:36:17.369Z,15.28
2022-12-07T05:41:41.151Z,17.76
2022-12-07T05:46:44.612Z,17.76
2022-12-07T05:51:51.526Z,23.16
2022-12-07T05:56:55.056Z,20.56
2022-12-07T06:02:02.573Z,19.48
2022-12-07T06:07:08.030Z,22.21
2022-12-07T06:12:29.831Z,19.16
2022-12-07T06:17:33.134Z,19.62
2022-12-07T06:22:38.180Z,23.95
2022-12-07T06:27:43.692Z,21.39
2022-12-07T06:32:46.945Z,27.39
2022-12-07T06:37:53.899Z,21.24
2022-12-07T06:42:57.255Z,20.96
2022-12-07T06:48:02.970Z,28.85
2022-12-07T06:53:07.804Z,26.95
2022-12-07T06:58:13.481Z,26.04
2022-12-07T07:03:17.179Z,19.72
2022-12-07T07:08:23.054Z,21.08
2022-12-07T07:13:29.674Z,21.02
2022-12-07T07:18:33.950Z,21.11
2022-12-07T07:23:38.622Z,22.05
2022-12-07T07:28:42.057Z,22.64
2022-12-07T07:33:45.449Z,20.55
2022-12-07T07:38:50.525Z,20.73
2022-12-07T07:43:53.862Z,21.23
2022-12-07T07:48:57.196Z,20.17
2022-12-07T07:54:02.295Z,19.61
2022-12-07T07:59:05.691Z,19.21
2022-12-07T08:04:09.052Z,18.96
2022-12-07T08:09:16.056Z,20.61
2022-12-07T08:14:19.408Z,19.64
2022-12-07T08:19:23.332Z,19.02
2022-12-07T08:24:30.161Z,19.13
2022-12-07T08:29:36.522Z,20.88
2022-12-07T08:34:39.843Z,22.43
2022-12-07T08:39:46.690Z,21.26
2022-12-07T08:44:52.260Z,24.81
2022-12-07T08:49:56.302Z,25.29
2022-12-07T08:55:04.567Z,23.32
2022-12-07T09:00:08.715Z,24.38
2022-12-07T09:05:16.521Z,26.67
2022-12-07T09:10:21.810Z,27.02
2022-12-07T09:15:25.183Z,26.14
2022-12-07T09:20:28.597Z,24.51
2022-12-07T09:25:33.262Z,27.97
2022-12-07T09:30:52.838Z,27.39
2022-12-07T09:36:06.199Z,25.26
2022-12-07T09:41:13.341Z,22.95
2022-12-07T09:46:22.018Z,23.44
2022-12-07T09:51:26.457Z,22.93
2022-12-07T09:56:32.820Z,23.71
2022-12-07T10:01:41.532Z,23.04
2022-12-07T10:06:46.608Z,23.21
2022-12-07T10:12:09.788Z,21.02
2022-12-07T10:17:31.451Z,20.70
2022-12-07T10:22:34.841Z,24.21
2022-12-07T10:27:42.029Z,27.39
2022-12-07T10:32:47.843Z,29.73
2022-12-07T10:37:54.458Z,30.51
2022-12-07T10:43:06.429Z,30.76
2022-12-07T10:48:14.874Z,26.77
2022-12-07T10:53:30.506Z,26.14
2022-12-07T10:58:51.204Z,27.52
2022-12-07T11:04:04.882Z,26.00
2022-12-07T11:10:06.791Z,25.77
2022-12-07T11:15:09.348Z,23.90
2022-12-07T11:20:15.206Z,25.67
2022-12-07T11:25:30.835Z,26.07
2022-12-07T11:30:41.768Z,28.32
2022-12-07T11:35:57.213Z,26.99
2022-12-07T11:41:14.762Z,28.64
2022-12-07T11:46:26.256Z,25.96
2022-12-07T11:51:33.848Z,24.54
2022-12-07T11:56:38.809Z,26.50
2022-12-07T12:01:51.181Z,28.93
2022-12-07T12:06:55.181Z,25.82
2022-12-07T12:18:04.630Z,26.53
2022-12-07T12:23:12.986Z,26.12
2022-12-07T12:28:26.235Z,30.33
2022-12-07T12:33:34.558Z,33.39
2022-12-07T12:38:50.477Z,30.46
2022-12-07T12:43:54.647Z,34.59
2022-12-07T12:49:16.975Z,31.63
2022-12-07T12:54:22.402Z,31.17
2022-12-07T12:59:31.121Z,30.19
2022-12-07T13:04:55.764Z,28.05
2022-12-07T13:09:59.162Z,28.96
2022-12-07T13:15:04.383Z,27.45
2022-12-07T13:20:15.899Z,22.31
2022-12-07T13:25:28.541Z,23.91
2022-12-07T13:30:41.412Z,21.91
2022-12-07T13:35:46.144Z,21.89
2022-12-07T13:41:10.440Z,24.42
2022-12-07T13:46:18.525Z,24.79
2022-12-07T13:51:25.075Z,26.52
2022-12-07T13:56:33.750Z,24.77
2022-12-07T14:01:39.689Z,27.84
2022-12-07T14:06:51.186Z,27.45
2022-12-07T14:11:56.489Z,31.64
2022-12-07T14:17:04.676Z,26.63
2022-12-07T14:22:11.081Z,24.07
2022-12-07T14:27:19.171Z,24.29
2022-12-07T14:32:29.007Z,36.65
2022-12-07T14:37:36.750Z,25.18
2022-12-07T14:42:41.608Z,23.95
2022-12-07T14:58:25.330Z,26.30
2022-12-07T15:03:31.407Z,27.66
2022-12-07T15:08:38.478Z,27.57
2022-12-07T15:13:59.413Z,28.70
2022-12-07T15:19:27.420Z,31.31
2022-12-07T15:24:28.190Z,28.77
2022-12-07T15:29:31.719Z,26.47
2022-12-07T15:34:39.942Z,26.53
2022-12-07T15:39:45.063Z,26.90
2022-12-07T15:45:07.391Z,28.77
2022-12-07T15:50:15.445Z,27.54
2022-12-07T15:55:22.414Z,33.35
2022-12-07T16:00:25.940Z,31.95
2022-12-07T16:05:29.298Z,29.76
2022-12-07T16:10:34.126Z,29.78
2022-12-07T16:15:40.240Z,31.96
2022-12-07T16:20:43.750Z,42.94
2022-12-07T16:25:48.470Z,26.56
2022-12-07T16:31:01.737Z,28.06
2022-12-07T16:36:06.000Z,30.39
2022-12-07T16:41:11.382Z,30.66
2022-12-07T16:46:16.112Z,37.17
2022-12-07T16:51:19.533Z,28.97
2022-12-07T16:56:24.307Z,32.36
2022-12-07T17:01:29.221Z,30.12
2022-12-07T17:06:32.970Z,40.09
2022-12-07T17:11:38.242Z,39.44
2022-12-07T17:16:41.916Z,28.43
2022-12-07T17:21:47.502Z,28.91
2022-12-07T17:26:52.278Z,28.54
2022-12-07T17:31:55.713Z,27.18
2022-12-07T17:36:59.149Z,29.63
2022-12-07T17:42:21.224Z,28.63
2022-12-07T17:47:24.540Z,34.68
2022-12-07T17:52:45.528Z,32.24
2022-12-07T17:57:53.478Z,30.37
2022-12-07T18:02:56.874Z,29.89
2022-12-07T18:08:00.427Z,33.31
2022-12-07T18:13:22.511Z,23.27
2022-12-07T18:18:25.879Z,28.14
2022-12-07T18:23:31.600Z,28.45
2022-12-07T18:28:38.390Z,28.17
2022-12-07T18:33:41.861Z,25.98
2022-12-07T18:38:45.225Z,24.60
2022-12-07T18:43:49.881Z,26.01
2022-12-07T18:48:53.356Z,19.32
2022-12-07T18:53:57.410Z,23.23
2022-12-07T18:59:20.489Z,25.40
2022-12-07T19:04:24.069Z,36.38
2022-12-07T19:09:27.483Z,19.55
2022-12-07T19:14:33.476Z,22.51
2022-12-07T19:19:40.258Z,21.94
2022-12-07T19:24:46.499Z,23.51
2022-12-07T19:29:53.791Z,22.01
2022-12-07T19:34:59.413Z,21.44
2022-12-07T19:40:02.855Z,21.12
2022-12-07T19:45:08.500Z,19.24
2022-12-07T19:50:11.907Z,20.70
2022-12-07T19:55:15.278Z,21.11
2022-12-07T20:00:22.843Z,20.56
2022-12-07T20:05:26.207Z,20.13
2022-12-07T20:10:29.635Z,20.79
2022-12-07T20:15:34.327Z,19.17
2022-12-07T20:20:37.713Z,19.20
2022-12-07T20:25:41.572Z,21.67
2022-12-07T20:30:49.566Z,24.81
2022-12-07T20:35:53.005Z,31.19
2022-12-07T20:41:00.962Z,26.31
2022-12-07T20:46:08.274Z,26.90
2022-12-07T20:51:11.693Z,23.58
2022-12-07T20:56:22.129Z,20.56
2022-12-07T21:01:27.269Z,19.33
2022-12-07T21:06:32.794Z,21.15
2022-12-07T21:11:37.597Z,17.98
2022-12-07T21:16:44.581Z,17.95
2022-12-07T21:21:50.181Z,18.88
2022-12-07T21:26:53.650Z,18.15
2022-12-07T21:32:00.815Z,20.37
2022-12-07T21:37:04.300Z,27.96
2022-12-07T21:42:09.796Z,25.31
2022-12-07T21:47:14.617Z,23.81
2022-12-07T21:52:18.075Z,22.76
2022-12-07T21:57:21.423Z,23.00
2022-12-07T22:02:28.383Z,23.30
2022-12-07T22:07:32.166Z,22.74
2022-12-07T22:12:35.523Z,21.94
2022-12-07T22:17:42.505Z,34.70
2022-12-07T22:22:45.896Z,23.13
2022-12-07T22:27:51.568Z,22.54
2022-12-07T22:32:58.348Z,23.43
2022-12-07T22:38:02.728Z,22.28
2022-12-07T22:43:08.824Z,21.80
2022-12-07T22:48:13.525Z,22.36
2022-12-07T22:53:16.941Z,23.40
2022-12-07T22:58:20.766Z,23.49
2022-12-07T23:03:34.832Z,19.90
2022-12-07T23:08:38.292Z,21.98
2022-12-07T23:13:41.636Z,20.34
2022-12-07T23:18:46.274Z,20.50
2022-12-07T23:23:49.667Z,20.03
2022-12-07T23:28:53.293Z,19.78
2022-12-07T23:33:58.082Z,20.97
2022-12-07T23:39:01.671Z,21.62
2022-12-07T23:44:07.761Z,20.31
2022-12-07T23:49:13.771Z,19.60
2022-12-07T23:54:17.126Z,19.90
2022-12-07T23:59:21.248Z,19.73
